Time;durP1;ratioP1;P1;durP2;ratioP2;P2;SDS_P1;SDS_P2;PMS_P1;PMS_P2;Temp;Humidity;BMP_temperature;BMP_pressure;BME280_temperature;BME280_humidity;BME280_pressure;Samples;Min_cycle;Max_cycle;Signal;HPM_P1;HPM_P2
2022/07/28 00:01:05;;;;;;;7.13;0.90;;;;;;;;;;10481272;28;20221;-80
2022/07/28 00:06:06;;;;;;;6.43;0.77;;;;;;;;;;10481383;28;20186;-79
2022/07/28 00:11:07;;;;;;;0.65;0.57;;;;;;;;;;10455347;28;20221;-80
2022/07/28 00:16:08;;;;;;;2.28;0.40;;;;;;;;;;10452060;28;20273;-79
2022/07/28 00:21:09;;;;;;;3.25;0.80;;;;;;;;;;10478509;28;20569;-81
2022/07/28 00:26:11;;;;;;;1.08;0.80;;;;;;;;;;10480233;28;20173;-81
2022/07/28 00:31:12;;;;;;;2.38;0.60;;;;;;;;;;10486843;28;20992;-80
2022/07/28 00:36:13;;;;;;;1.05;0.57;;;;;;;;;;10467484;28;20849;-80
2022/07/28 00:41:15;;;;;;;1.85;0.68;;;;;;;;;;10454717;28;20222;-81
2022/07/28 00:46:18;;;;;;;4.25;0.60;;;;;;;;;;10481529;28;20608;-80
2022/07/28 00:51:20;;;;;;;1.40;0.60;;;;;;;;;;10477855;28;20282;-80
2022/07/28 00:56:21;;;;;;;3.70;0.82;;;;;;;;;;10477362;28;20178;-80
2022/07/28 01:01:23;;;;;;;2.35;0.70;;;;;;;;;;10472730;28;20218;-80
2022/07/28 01:06:48;;;;;;;5.85;0.98;;;;;;;;;;10477538;28;20197;-80
2022/07/28 01:12:04;;;;;;;5.38;0.82;;;;;;;;;;10471418;28;20284;-80
2022/07/28 01:17:11;;;;;;;4.18;1.08;;;;;;;;;;10475910;28;20182;-80
2022/07/28 01:22:15;;;;;;;1.20;0.70;;;;;;;;;;10473360;28;20225;-80
2022/07/28 01:27:37;;;;;;;4.13;1.10;;;;;;;;;;10453941;28;20182;-81
2022/07/28 01:32:43;;;;;;;4.05;0.65;;;;;;;;;;10472522;28;20222;-81
2022/07/28 01:37:46;;;;;;;2.65;0.95;;;;;;;;;;10475875;28;20189;-81
2022/07/28 01:42:53;;;;;;;1.13;0.60;;;;;;;;;;10475854;28;20230;-81
2022/07/28 01:47:56;;;;;;;3.22;0.75;;;;;;;;;;10481311;28;20217;-81
2022/07/28 01:52:58;;;;;;;3.25;0.60;;;;;;;;;;10479820;28;20596;-81
2022/07/28 01:57:59;;;;;;;2.10;0.70;;;;;;;;;;10461837;28;20183;-82
2022/07/28 02:03:04;;;;;;;2.53;0.80;;;;;;;;;;10469774;28;20657;-81
2022/07/28 02:08:06;;;;;;;3.22;0.98;;;;;;;;;;10474470;28;20197;-81
2022/07/28 02:13:08;;;;;;;2.70;1.40;;;;;;;;;;10475277;28;20221;-81
2022/07/28 02:18:10;;;;;;;1.10;0.77;;;;;;;;;;10445323;28;20199;-82
2022/07/28 02:23:13;;;;;;;1.02;1.02;;;;;;;;;;10474822;28;20226;-82
2022/07/28 02:28:15;;;;;;;3.50;1.00;;;;;;;;;;10449134;28;20599;-81
2022/07/28 02:33:20;;;;;;;1.48;0.65;;;;;;;;;;10483906;28;21048;-81
2022/07/28 02:38:27;;;;;;;3.33;0.80;;;;;;;;;;10482494;28;20599;-82
2022/07/28 02:43:29;;;;;;;3.20;0.95;;;;;;;;;;10481491;28;20237;-82
2022/07/28 02:48:35;;;;;;;5.43;0.90;;;;;;;;;;10480180;28;20197;-83
2022/07/28 02:53:36;;;;;;;2.63;2.00;;;;;;;;;;10475455;28;20233;-83
2022/07/28 02:58:38;;;;;;;1.70;0.85;;;;;;;;;;10472798;28;20250;-84
2022/07/28 03:03:40;;;;;;;3.22;1.25;;;;;;;;;;10464634;28;20631;-83
2022/07/28 03:08:41;;;;;;;1.45;0.73;;;;;;;;;;10474574;28;20555;-83
2022/07/28 03:13:42;;;;;;;2.70;0.85;;;;;;;;;;10482811;28;20744;-83
2022/07/28 03:18:43;;;;;;;2.97;1.40;;;;;;;;;;10479631;28;20226;-83
2022/07/28 03:23:48;;;;;;;8.77;2.75;;;;;;;;;;10458435;28;20307;-84
2022/07/28 03:28:51;;;;;;;8.98;1.40;;;;;;;;;;10484350;28;20175;-84
2022/07/28 03:33:52;;;;;;;3.95;1.30;;;;;;;;;;10460591;28;20233;-83
2022/07/28 03:39:03;;;;;;;4.22;1.20;;;;;;;;;;10481722;28;20548;-84
2022/07/28 03:44:05;;;;;;;4.38;0.98;;;;;;;;;;10442910;28;20230;-83
2022/07/28 03:49:08;;;;;;;1.38;1.15;;;;;;;;;;10474039;28;20245;-83
2022/07/28 03:54:10;;;;;;;5.15;1.23;;;;;;;;;;10464100;28;20240;-83
2022/07/28 03:59:11;;;;;;;2.92;1.15;;;;;;;;;;10463142;28;20217;-83
2022/07/28 04:04:12;;;;;;;1.67;1.27;;;;;;;;;;10465534;28;20351;-82
2022/07/28 04:09:14;;;;;;;6.20;1.40;;;;;;;;;;10483297;28;20182;-83
2022/07/28 04:14:16;;;;;;;4.68;1.40;;;;;;;;;;10484305;28;20213;-83
2022/07/28 04:19:17;;;;;;;5.55;1.33;;;;;;;;;;10480599;28;20256;-82
2022/07/28 04:24:19;;;;;;;3.50;1.45;;;;;;;;;;10478964;28;20228;-84
2022/07/28 04:29:25;;;;;;;2.78;1.30;;;;;;;;;;10491550;28;20205;-84
2022/07/28 04:34:26;;;;;;;7.55;1.20;;;;;;;;;;10481698;28;20245;-83
2022/07/28 04:39:27;;;;;;;5.38;1.23;;;;;;;;;;10483032;28;20207;-84
2022/07/28 04:44:28;;;;;;;4.15;1.40;;;;;;;;;;10485702;28;20223;-82
2022/07/28 04:49:30;;;;;;;4.47;1.25;;;;;;;;;;10489191;28;20292;-79
2022/07/28 04:54:31;;;;;;;5.38;1.60;;;;;;;;;;10468355;28;20300;-80
2022/07/28 04:59:34;;;;;;;4.13;1.42;;;;;;;;;;10488010;28;20202;-81
2022/07/28 05:04:35;;;;;;;3.03;1.20;;;;;;;;;;10481403;28;20268;-77
2022/07/28 05:09:36;;;;;;;6.45;1.20;;;;;;;;;;10482469;28;20218;-80
2022/07/28 05:14:37;;;;;;;5.82;1.10;;;;;;;;;;10480019;28;20218;-82
2022/07/28 05:19:38;;;;;;;7.85;1.23;;;;;;;;;;10483473;28;20201;-82
2022/07/28 05:24:39;;;;;;;2.60;1.30;;;;;;;;;;10480483;28;20236;-81
2022/07/28 05:29:40;;;;;;;4.68;1.05;;;;;;;;;;10460466;28;20181;-82
2022/07/28 05:34:41;;;;;;;3.85;0.93;;;;;;;;;;10494855;28;20238;-82
2022/07/28 05:39:42;;;;;;;5.28;1.15;;;;;;;;;;10483648;28;20192;-83
2022/07/28 05:44:43;;;;;;;1.60;0.90;;;;;;;;;;10480672;28;21129;-81
2022/07/28 05:49:45;;;;;;;5.03;1.20;;;;;;;;;;10460600;28;20206;-81
2022/07/28 05:54:46;;;;;;;2.92;0.82;;;;;;;;;;10477790;28;20264;-82
2022/07/28 05:59:47;;;;;;;5.47;1.02;;;;;;;;;;10486017;28;20553;-80
2022/07/28 06:04:48;;;;;;;5.05;0.93;;;;;;;;;;10476888;28;20305;-81
2022/07/28 06:09:49;;;;;;;4.00;0.90;;;;;;;;;;10489719;28;20265;-81
2022/07/28 06:14:50;;;;;;;4.95;1.08;;;;;;;;;;10455289;28;20257;-80
2022/07/28 06:19:51;;;;;;;7.60;1.00;;;;;;;;;;10480863;28;20206;-81
2022/07/28 06:24:52;;;;;;;5.05;0.90;;;;;;;;;;10487273;28;20221;-79
2022/07/28 06:29:53;;;;;;;3.90;0.73;;;;;;;;;;10491606;28;20193;-80
2022/07/28 06:34:54;;;;;;;5.57;1.00;;;;;;;;;;10494162;28;20706;-81
2022/07/28 06:39:55;;;;;;;6.07;0.90;;;;;;;;;;10463370;28;20181;-79
2022/07/28 06:44:56;;;;;;;1.70;1.20;;;;;;;;;;10490907;28;20216;-81
2022/07/28 06:49:57;;;;;;;5.20;1.08;;;;;;;;;;10485675;28;20631;-81
2022/07/28 06:54:59;;;;;;;5.35;1.00;;;;;;;;;;10479832;28;20213;-79
2022/07/28 07:00:05;;;;;;;3.35;1.20;;;;;;;;;;10485353;28;20178;-80
2022/07/28 07:05:06;;;;;;;3.33;0.90;;;;;;;;;;10467630;28;20657;-80
2022/07/28 07:10:08;;;;;;;2.50;0.68;;;;;;;;;;10488589;28;20257;-79
2022/07/28 07:15:09;;;;;;;4.30;0.90;;;;;;;;;;10481369;28;20201;-79
2022/07/28 07:20:12;;;;;;;4.35;0.95;;;;;;;;;;10486032;28;20328;-78
2022/07/28 07:25:15;;;;;;;6.38;1.02;;;;;;;;;;10486931;28;20174;-81
2022/07/28 07:30:16;;;;;;;8.20;0.80;;;;;;;;;;10491801;28;20178;-80
2022/07/28 07:35:18;;;;;;;1.63;0.77;;;;;;;;;;10497418;28;20653;-79
2022/07/28 07:40:19;;;;;;;2.75;0.95;;;;;;;;;;10477979;28;20180;-80
2022/07/28 07:45:20;;;;;;;2.13;1.17;;;;;;;;;;10469515;28;20526;-83
2022/07/28 07:50:21;;;;;;;3.88;0.77;;;;;;;;;;10485329;28;20201;-79
2022/07/28 07:55:22;;;;;;;2.35;0.73;;;;;;;;;;10485308;28;20257;-79
2022/07/28 08:00:23;;;;;;;2.05;0.50;;;;;;;;;;10486584;28;20294;-79
2022/07/28 08:05:24;;;;;;;3.13;0.70;;;;;;;;;;10462460;28;20175;-79
2022/07/28 08:10:25;;;;;;;2.38;0.60;;;;;;;;;;10484657;28;20265;-78
2022/07/28 08:15:27;;;;;;;1.83;0.80;;;;;;;;;;10480596;28;20174;-80
2022/07/28 08:20:28;;;;;;;1.42;0.80;;;;;;;;;;10481275;28;20241;-79
2022/07/28 08:25:29;;;;;;;2.30;0.65;;;;;;;;;;10460719;28;20186;-78
2022/07/28 08:30:30;;;;;;;2.58;0.95;;;;;;;;;;10485016;28;20210;-81
2022/07/28 08:35:31;;;;;;;5.35;0.88;;;;;;;;;;10463456;28;20349;-78
2022/07/28 08:40:34;;;;;;;2.28;0.50;;;;;;;;;;10461486;28;20205;-77
2022/07/28 08:45:36;;;;;;;1.75;0.55;;;;;;;;;;10457799;28;21118;-77
2022/07/28 08:50:40;;;;;;;2.25;1.00;;;;;;;;;;10479186;28;20209;-77
2022/07/28 08:55:42;;;;;;;2.17;0.60;;;;;;;;;;10455380;28;20265;-78
2022/07/28 09:00:43;;;;;;;2.45;0.50;;;;;;;;;;10476364;28;20246;-77
2022/07/28 09:05:44;;;;;;;0.60;0.60;;;;;;;;;;10461338;28;20170;-79
2022/07/28 09:10:46;;;;;;;3.25;0.70;;;;;;;;;;10481211;28;20214;-77
2022/07/28 09:15:47;;;;;;;1.58;0.68;;;;;;;;;;10489093;28;20230;-79
2022/07/28 09:20:48;;;;;;;1.55;0.60;;;;;;;;;;10482585;28;20217;-77
2022/07/28 09:25:49;;;;;;;1.00;0.50;;;;;;;;;;10473106;28;20212;-77
2022/07/28 09:30:50;;;;;;;2.58;0.52;;;;;;;;;;10481272;28;20206;-79
2022/07/28 09:35:53;;;;;;;2.63;0.90;;;;;;;;;;10487432;28;20557;-81
2022/07/28 09:41:07;;;;;;;2.45;0.70;;;;;;;;;;10483114;28;20220;-78
2022/07/28 09:46:08;;;;;;;0.50;0.45;;;;;;;;;;10483945;28;20183;-77
2022/07/28 09:51:13;;;;;;;2.00;0.60;;;;;;;;;;10452917;28;20212;-77
2022/07/28 09:56:15;;;;;;;6.20;0.70;;;;;;;;;;10479445;28;20175;-76
2022/07/28 10:01:19;;;;;;;2.08;0.70;;;;;;;;;;10446568;28;20684;-78
2022/07/28 10:06:25;;;;;;;2.67;0.57;;;;;;;;;;10478975;28;20661;-79
2022/07/28 10:11:27;;;;;;;1.08;0.43;;;;;;;;;;10483206;28;20690;-77
2022/07/28 10:16:30;;;;;;;3.35;0.73;;;;;;;;;;10468644;28;22355;-77
2022/07/28 10:21:33;;;;;;;4.80;0.95;;;;;;;;;;10480320;28;20276;-76
2022/07/28 10:26:41;;;;;;;1.48;0.50;;;;;;;;;;10486311;28;20174;-79
2022/07/28 10:31:45;;;;;;;3.88;0.68;;;;;;;;;;10441761;28;20276;-76
2022/07/28 10:36:46;;;;;;;0.98;0.60;;;;;;;;;;10471659;28;20200;-75
2022/07/28 10:41:48;;;;;;;4.75;1.00;;;;;;;;;;10475961;28;20315;-76
2022/07/28 10:46:50;;;;;;;2.38;0.70;;;;;;;;;;10486840;28;20194;-75
2022/07/28 10:51:51;;;;;;;3.00;0.80;;;;;;;;;;10479354;28;20245;-74
2022/07/28 10:56:53;;;;;;;2.40;0.65;;;;;;;;;;10476544;28;20264;-79
2022/07/28 11:01:54;;;;;;;1.38;0.70;;;;;;;;;;10482032;28;20218;-73
2022/07/28 11:07:09;;;;;;;1.40;0.60;;;;;;;;;;10485152;28;20248;-77
2022/07/28 11:12:14;;;;;;;1.02;0.85;;;;;;;;;;10456359;28;20219;-76
2022/07/28 11:17:16;;;;;;;0.60;0.60;;;;;;;;;;10458500;28;20264;-76
2022/07/28 11:22:17;;;;;;;0.80;0.70;;;;;;;;;;10473873;28;20223;-76
2022/07/28 11:27:39;;;;;;;3.42;0.88;;;;;;;;;;10490001;28;20177;-76
2022/07/28 11:32:52;;;;;;;4.25;0.60;;;;;;;;;;10483044;28;20222;-76
2022/07/28 11:38:02;;;;;;;5.60;0.60;;;;;;;;;;10474558;28;20943;-77
2022/07/28 11:43:37;;;;;;;2.03;0.63;;;;;;;;;;10490214;28;20359;-76
2022/07/28 11:48:39;;;;;;;3.38;0.65;;;;;;;;;;10436762;28;20206;-76
2022/07/28 11:53:48;;;;;;;3.03;0.80;;;;;;;;;;10465057;28;20218;-75
2022/07/28 11:59:00;;;;;;;3.80;0.70;;;;;;;;;;10468919;28;20400;-76
2022/07/28 12:04:09;;;;;;;0.70;0.60;;;;;;;;;;10466578;28;20253;-76
2022/07/28 12:09:12;;;;;;;2.00;0.70;;;;;;;;;;10472988;28;20749;-74
2022/07/28 12:14:14;;;;;;;1.85;0.63;;;;;;;;;;10469444;28;20761;-75
2022/07/28 12:19:16;;;;;;;1.90;0.52;;;;;;;;;;10443576;28;20206;-74
2022/07/28 12:24:27;;;;;;;2.63;0.88;;;;;;;;;;10472664;28;20222;-75
2022/07/28 12:29:30;;;;;;;2.30;0.68;;;;;;;;;;10449519;28;20182;-74
2022/07/28 12:34:33;;;;;;;3.72;0.60;;;;;;;;;;10472622;28;20229;-74
2022/07/28 12:39:38;;;;;;;1.58;0.60;;;;;;;;;;10449328;28;20212;-74
2022/07/28 12:44:40;;;;;;;0.85;0.70;;;;;;;;;;10465218;28;20221;-74
2022/07/28 12:49:42;;;;;;;2.65;0.80;;;;;;;;;;10448051;28;20600;-73
2022/07/28 12:54:43;;;;;;;0.50;0.50;;;;;;;;;;10460817;28;20222;-74
2022/07/28 12:59:44;;;;;;;0.77;0.52;;;;;;;;;;10469132;28;20228;-74
2022/07/28 13:04:49;;;;;;;1.17;0.40;;;;;;;;;;10438732;28;20261;-74
2022/07/28 13:10:00;;;;;;;4.32;0.75;;;;;;;;;;10473203;28;20174;-73
2022/07/28 13:15:02;;;;;;;1.52;0.50;;;;;;;;;;10469054;28;20312;-76
2022/07/28 13:20:14;;;;;;;0.82;0.60;;;;;;;;;;10465352;28;20212;-75
2022/07/28 13:25:15;;;;;;;3.40;0.52;;;;;;;;;;10398737;28;20248;-74
2022/07/28 13:30:16;;;;;;;2.95;0.60;;;;;;;;;;10419629;28;21062;-75
2022/07/28 13:35:17;;;;;;;1.27;0.50;;;;;;;;;;10460375;28;20222;-74
2022/07/28 13:40:18;;;;;;;0.95;0.70;;;;;;;;;;10470008;28;21012;-76
2022/07/28 13:45:20;;;;;;;3.20;0.63;;;;;;;;;;10472566;28;20206;-75
2022/07/28 13:50:21;;;;;;;1.02;0.60;;;;;;;;;;10453723;28;20207;-75
2022/07/28 13:55:22;;;;;;;6.38;0.70;;;;;;;;;;10468606;28;20544;-76
2022/07/28 14:00:24;;;;;;;1.20;0.50;;;;;;;;;;10471918;28;20191;-75
2022/07/28 14:05:25;;;;;;;2.15;0.70;;;;;;;;;;10446555;28;20202;-75
2022/07/28 14:10:26;;;;;;;2.20;0.60;;;;;;;;;;10464081;28;20186;-74
2022/07/28 14:15:27;;;;;;;0.68;0.40;;;;;;;;;;10449344;28;20249;-75
2022/07/28 14:20:28;;;;;;;1.88;0.70;;;;;;;;;;10444490;28;20209;-74
2022/07/28 14:25:29;;;;;;;1.52;0.40;;;;;;;;;;10478046;28;20187;-75
2022/07/28 14:30:31;;;;;;;2.72;0.93;;;;;;;;;;10476775;28;21072;-75
2022/07/28 14:35:33;;;;;;;0.95;0.43;;;;;;;;;;10477182;28;20316;-75
2022/07/28 14:40:35;;;;;;;1.70;0.90;;;;;;;;;;10462748;28;20593;-75
2022/07/28 14:45:37;;;;;;;2.08;0.40;;;;;;;;;;10464066;28;20255;-76
2022/07/28 14:50:38;;;;;;;2.67;0.60;;;;;;;;;;10480821;28;20216;-75
2022/07/28 14:55:39;;;;;;;13.18;0.80;;;;;;;;;;10468721;28;20634;-76
2022/07/28 15:00:40;;;;;;;3.17;0.60;;;;;;;;;;10471887;28;20226;-75
2022/07/28 15:05:42;;;;;;;2.78;0.70;;;;;;;;;;10478982;28;21083;-75
2022/07/28 15:10:43;;;;;;;0.40;0.40;;;;;;;;;;10476219;28;20209;-75
2022/07/28 15:15:44;;;;;;;0.93;0.40;;;;;;;;;;10482015;28;20182;-76
2022/07/28 15:20:48;;;;;;;2.85;0.60;;;;;;;;;;10475349;28;20214;-74
2022/07/28 15:25:49;;;;;;;1.33;0.50;;;;;;;;;;10483199;28;20573;-74
2022/07/28 15:30:50;;;;;;;1.85;0.57;;;;;;;;;;10470798;28;20224;-76
2022/07/28 15:35:51;;;;;;;1.25;0.52;;;;;;;;;;10457556;28;20179;-76
2022/07/28 15:40:52;;;;;;;1.65;0.50;;;;;;;;;;10477380;28;20226;-75
2022/07/28 15:45:56;;;;;;;1.25;0.40;;;;;;;;;;10485157;28;20174;-76
2022/07/28 15:50:57;;;;;;;1.90;0.55;;;;;;;;;;10470323;28;20219;-76
2022/07/28 15:55:58;;;;;;;1.38;0.40;;;;;;;;;;10477498;28;20227;-75
2022/07/28 16:01:00;;;;;;;3.30;0.70;;;;;;;;;;10476527;28;20298;-76
2022/07/28 16:06:01;;;;;;;1.55;0.50;;;;;;;;;;10473437;28;20553;-77
2022/07/28 16:11:02;;;;;;;5.25;0.60;;;;;;;;;;10479690;28;20205;-71
2022/07/28 16:16:11;;;;;;;1.98;0.50;;;;;;;;;;10473869;28;20841;-75
2022/07/28 16:21:12;;;;;;;2.28;0.55;;;;;;;;;;10471119;28;20214;-74
2022/07/28 16:26:13;;;;;;;6.90;0.70;;;;;;;;;;10484809;28;20657;-72
2022/07/28 16:31:15;;;;;;;2.42;0.63;;;;;;;;;;10484300;28;20287;-73
2022/07/28 16:36:16;;;;;;;2.05;0.80;;;;;;;;;;10483162;28;20188;-73
2022/07/28 16:41:17;;;;;;;2.90;0.70;;;;;;;;;;10479626;28;20214;-78
2022/07/28 16:46:19;;;;;;;1.92;0.68;;;;;;;;;;10474089;28;20183;-79
2022/07/28 16:51:20;;;;;;;3.85;0.60;;;;;;;;;;10482453;28;20225;-79
2022/07/28 16:56:21;;;;;;;1.95;0.70;;;;;;;;;;10481598;28;20967;-77
2022/07/28 17:01:22;;;;;;;3.33;0.70;;;;;;;;;;10474173;28;20221;-76
2022/07/28 17:06:24;;;;;;;6.13;0.90;;;;;;;;;;10475470;28;20232;-78
2022/07/28 17:11:25;;;;;;;2.67;0.70;;;;;;;;;;10469408;28;20214;-78
2022/07/28 17:16:26;;;;;;;4.35;0.60;;;;;;;;;;10466212;28;20276;-76
2022/07/28 17:21:27;;;;;;;5.32;0.80;;;;;;;;;;10477718;28;20213;-78
2022/07/28 17:26:30;;;;;;;0.60;0.60;;;;;;;;;;10477188;28;20214;-75
2022/07/28 17:31:31;;;;;;;2.92;0.60;;;;;;;;;;10455143;28;20651;-74
2022/07/28 17:36:34;;;;;;;2.00;0.50;;;;;;;;;;10473556;28;20248;-74
2022/07/28 17:41:35;;;;;;;1.27;0.50;;;;;;;;;;10471264;28;20213;-76
2022/07/28 17:46:36;;;;;;;2.15;0.90;;;;;;;;;;10455347;28;20183;-75
2022/07/28 17:51:37;;;;;;;5.05;0.60;;;;;;;;;;10455732;28;20300;-78
2022/07/28 17:56:39;;;;;;;0.93;0.50;;;;;;;;;;10474908;28;20277;-71
2022/07/28 18:01:40;;;;;;;4.50;0.60;;;;;;;;;;10461347;28;20222;-73
2022/07/28 18:06:43;;;;;;;0.73;0.60;;;;;;;;;;10480529;28;20221;-73
2022/07/28 18:11:44;;;;;;;2.10;0.50;;;;;;;;;;10444892;28;20218;-73
2022/07/28 18:16:45;;;;;;;0.82;0.60;;;;;;;;;;10482103;28;20255;-76
2022/07/28 18:21:46;;;;;;;1.77;0.68;;;;;;;;;;10493270;28;20225;-82
2022/07/28 18:26:48;;;;;;;4.80;0.68;;;;;;;;;;10490169;28;20179;-78
2022/07/28 18:31:52;;;;;;;1.77;0.40;;;;;;;;;;10461374;28;20275;-80
2022/07/28 18:36:53;;;;;;;1.20;0.50;;;;;;;;;;10487453;28;20673;-76
2022/07/28 18:41:55;;;;;;;0.82;0.40;;;;;;;;;;10480308;28;20210;-76
2022/07/28 18:46:56;;;;;;;3.80;0.75;;;;;;;;;;10477863;28;20182;-74
2022/07/28 18:51:57;;;;;;;1.35;0.43;;;;;;;;;;10465453;28;20212;-74
2022/07/28 18:56:58;;;;;;;3.58;0.60;;;;;;;;;;10484250;28;20533;-79
2022/07/28 19:01:59;;;;;;;1.25;0.50;;;;;;;;;;10468088;28;20244;-86
2022/07/28 19:07:00;;;;;;;2.53;0.50;;;;;;;;;;10483490;28;20174;-83
2022/07/28 19:12:01;;;;;;;1.88;0.50;;;;;;;;;;10485362;28;20233;-84
2022/07/28 19:17:04;;;;;;;1.38;0.50;;;;;;;;;;10493446;28;20179;-81
2022/07/28 19:22:07;;;;;;;3.65;0.50;;;;;;;;;;10494931;28;20214;-80
2022/07/28 19:27:08;;;;;;;0.40;0.40;;;;;;;;;;10490301;28;21125;-80
2022/07/28 19:32:10;;;;;;;1.45;0.55;;;;;;;;;;10481775;28;20230;-78
2022/07/28 19:37:11;;;;;;;3.25;0.57;;;;;;;;;;10494085;28;20178;-80
2022/07/28 19:42:12;;;;;;;0.63;0.63;;;;;;;;;;10491428;28;20214;-81
2022/07/28 19:47:13;;;;;;;8.80;0.60;;;;;;;;;;10499456;28;20205;-81
2022/07/28 19:52:14;;;;;;;2.00;0.60;;;;;;;;;;10476705;28;20645;-81
2022/07/28 19:57:15;;;;;;;1.10;0.52;;;;;;;;;;10488653;28;20262;-80
2022/07/28 20:02:16;;;;;;;1.90;0.40;;;;;;;;;;10493763;28;20209;-80
2022/07/28 20:07:17;;;;;;;1.35;0.50;;;;;;;;;;10473544;28;20527;-81
2022/07/28 20:12:18;;;;;;;1.98;0.50;;;;;;;;;;10488769;28;20210;-81
2022/07/28 20:17:19;;;;;;;0.40;0.40;;;;;;;;;;10485680;28;20259;-81
2022/07/28 20:22:20;;;;;;;0.82;0.60;;;;;;;;;;10487705;28;20224;-82
2022/07/28 20:27:22;;;;;;;1.70;0.80;;;;;;;;;;10467920;28;20178;-81
2022/07/28 20:32:23;;;;;;;0.70;0.70;;;;;;;;;;10454971;28;20230;-81
2022/07/28 20:37:25;;;;;;;1.08;0.70;;;;;;;;;;10484758;28;20174;-81
2022/07/28 20:42:26;;;;;;;2.28;0.77;;;;;;;;;;10493813;28;20222;-83
2022/07/28 20:47:27;;;;;;;0.68;0.60;;;;;;;;;;10486584;28;20198;-82
2022/07/28 20:52:29;;;;;;;4.28;0.80;;;;;;;;;;10475695;28;20222;-82
2022/07/28 20:57:30;;;;;;;2.38;0.88;;;;;;;;;;10488285;28;20190;-81
2022/07/28 21:02:31;;;;;;;2.13;0.63;;;;;;;;;;10484206;28;20712;-81
2022/07/28 21:07:32;;;;;;;12.30;1.00;;;;;;;;;;10484464;28;20917;-82
2022/07/28 21:12:33;;;;;;;3.42;0.80;;;;;;;;;;10479490;28;20248;-81
2022/07/28 21:17:35;;;;;;;1.23;1.13;;;;;;;;;;10464024;28;20199;-83
2022/07/28 21:22:36;;;;;;;4.85;0.77;;;;;;;;;;10476051;28;20343;-82
2022/07/28 21:32:56;;;;;;;1.15;0.70;;;;;;;;;;10484894;28;20233;-81
2022/07/28 21:37:57;;;;;;;1.83;0.70;;;;;;;;;;10496385;28;20189;-81
2022/07/28 21:42:58;;;;;;;3.65;0.55;;;;;;;;;;10485740;28;20673;-82
2022/07/28 21:48:00;;;;;;;0.57;0.52;;;;;;;;;;10496436;28;20194;-82
2022/07/28 21:53:01;;;;;;;0.75;0.43;;;;;;;;;;10485094;28;20210;-82
2022/07/28 21:58:02;;;;;;;0.75;0.75;;;;;;;;;;10486774;28;20185;-82
2022/07/28 22:03:03;;;;;;;1.65;0.60;;;;;;;;;;10454554;28;20305;-82
2022/07/28 22:08:05;;;;;;;1.95;0.50;;;;;;;;;;10485384;28;20187;-82
2022/07/28 22:13:06;;;;;;;0.82;0.50;;;;;;;;;;10476828;28;20218;-82
2022/07/28 22:18:07;;;;;;;0.60;0.50;;;;;;;;;;10453847;28;20256;-82
2022/07/28 22:23:08;;;;;;;0.90;0.60;;;;;;;;;;10474844;28;20313;-82
2022/07/28 22:28:09;;;;;;;3.03;0.63;;;;;;;;;;10461937;28;20257;-82
2022/07/28 22:33:11;;;;;;;1.80;0.50;;;;;;;;;;10487854;28;20265;-82
2022/07/28 22:38:12;;;;;;;2.92;0.55;;;;;;;;;;10482865;28;20637;-83
2022/07/28 22:43:13;;;;;;;1.58;0.70;;;;;;;;;;10484186;28;20677;-83
2022/07/28 22:48:14;;;;;;;1.80;0.68;;;;;;;;;;10493148;28;20685;-82
2022/07/28 22:53:15;;;;;;;3.25;0.65;;;;;;;;;;10487506;28;20267;-82
2022/07/28 22:58:16;;;;;;;0.65;0.50;;;;;;;;;;10491209;28;20185;-82
2022/07/28 23:03:17;;;;;;;3.20;0.68;;;;;;;;;;10490680;28;20226;-82
2022/07/28 23:08:18;;;;;;;1.65;0.65;;;;;;;;;;10491801;28;20208;-82
2022/07/28 23:13:19;;;;;;;0.70;0.70;;;;;;;;;;10478729;28;20211;-82
2022/07/28 23:18:20;;;;;;;5.75;0.70;;;;;;;;;;10478186;28;20886;-81
2022/07/28 23:23:22;;;;;;;1.20;0.60;;;;;;;;;;10464398;28;20740;-82
2022/07/28 23:28:23;;;;;;;3.05;0.65;;;;;;;;;;10490256;28;20185;-82
2022/07/28 23:33:24;;;;;;;0.70;0.55;;;;;;;;;;10481753;28;20606;-81
2022/07/28 23:38:26;;;;;;;0.77;0.60;;;;;;;;;;10462374;28;20213;-81
2022/07/28 23:43:29;;;;;;;3.97;0.80;;;;;;;;;;10476419;28;20214;-82
2022/07/28 23:48:30;;;;;;;2.33;0.80;;;;;;;;;;10500627;28;20247;-81
2022/07/28 23:53:31;;;;;;;3.05;0.73;;;;;;;;;;10491890;28;20296;-82
2022/07/28 23:58:32;;;;;;;2.13;0.77;;;;;;;;;;10490217;28;20186;-82
